Cherry Capital Airport
KTVC : now visible

Airfield :











YOU CAN JOIN US ON...

 
LOGIN :

Register | Disclaimer

   EN    FR    IT 

 









Legend :    VFR   Marginal VFR   IFR   Intensive IFR   Very Intensive IFR
Visi :
Ceiling :
>= 8 km
>= 3000ft
5 to 8 km
1000 to 3000 ft
1500m to 5 km
500 to 1000 ft
800 to 1500m
200 to 500 ft
< 800m
< 200 ft
Symbols :   Thunderstorms  Fog  Heavy snow  Heavy precipitations  Wind > 20 kt







- Airport Elevation : 624 ft
- IATA code : TVC


KTVC - Cherry Capital

CURRENT METAR :
  • 211053Z 00000KT 10SM FEW050 18/17 A3008 RMK AO2 SLP184 T01780167

EXPIRED METARs :
  • 210953Z AUTO 00000KT 10SM CLR 18/16 A3009 RMK AO2 SLP188 T01780161
  • 210853Z AUTO 00000KT 8SM CLR 17/15 A3009 RMK AO2 SLP188 T01670150 55004
  • 210753Z AUTO 00000KT 9SM CLR 17/15 A3009 RMK AO2 SLP186 T01670150 TSNO

TAF KTVC
Valid from the 21 at 06:00 until the 22 at 06:00 UTC


210520Z 2106/2206 00000KT P6SM FEW250
TEMPO 2106/2110 5SM BR
FM211300 VRB03KT P6SM FEW250
FM211700 20010G18KT P6SM SCT200
FM211800 21013G21KT P6SM VCSH BKN040
FM212200 20014G22KT P6SM VCSH BKN030
FM220200 20014G22KT 6SM -SHRA BR OVC028
No reported NOTAMs for that airfield.



MET'MAP, your aeronautical weather chart ! - Copyright ORBIFLY December 2007 - Disclaimer

ORBIFLY MET'MAP TEAM :

Programming & Development : Alexandra Zaïnal
Concept & Development : Baudouin d'Aumeries
Co-Development & Prog : Marc-Olivier Méhu
Technical & hardware support : Manuel Goepfert

Contact : metmap@orbifly.com




SOURCES & CREDITS :

   NOAA       Earth
Advisory